sensor_id;sensor_type;location;lat;lon;timestamp;P1;durP1;ratioP1;P2;durP2;ratioP2
22435;SDS011;11385;50.822;4.324;2023-11-21T00:01:55;38.92;;;16.12;;
22435;SDS011;11385;50.822;4.324;2023-11-21T00:04:22;34.95;;;15.30;;
22435;SDS011;11385;50.822;4.324;2023-11-21T00:06:50;37.33;;;16.52;;
22435;SDS011;11385;50.822;4.324;2023-11-21T00:09:17;32.70;;;14.45;;
22435;SDS011;11385;50.822;4.324;2023-11-21T00:11:45;37.33;;;16.77;;
22435;SDS011;11385;50.822;4.324;2023-11-21T00:14:11;31.93;;;15.93;;
22435;SDS011;11385;50.822;4.324;2023-11-21T00:16:39;34.85;;;16.62;;
22435;SDS011;11385;50.822;4.324;2023-11-21T00:19:06;34.03;;;15.30;;
22435;SDS011;11385;50.822;4.324;2023-11-21T00:21:33;37.03;;;15.68;;
22435;SDS011;11385;50.822;4.324;2023-11-21T00:24:00;35.58;;;17.02;;
22435;SDS011;11385;50.822;4.324;2023-11-21T00:26:27;33.15;;;16.52;;
22435;SDS011;11385;50.822;4.324;2023-11-21T00:28:54;36.03;;;16.37;;
22435;SDS011;11385;50.822;4.324;2023-11-21T00:31:20;32.28;;;15.70;;
22435;SDS011;11385;50.822;4.324;2023-11-21T00:33:48;33.28;;;16.15;;
22435;SDS011;11385;50.822;4.324;2023-11-21T00:36:14;31.60;;;15.65;;
22435;SDS011;11385;50.822;4.324;2023-11-21T00:38:42;30.02;;;15.50;;
22435;SDS011;11385;50.822;4.324;2023-11-21T00:41:08;38.58;;;18.55;;
22435;SDS011;11385;50.822;4.324;2023-11-21T00:43:36;36.83;;;17.23;;
22435;SDS011;11385;50.822;4.324;2023-11-21T00:46:04;30.90;;;15.38;;
22435;SDS011;11385;50.822;4.324;2023-11-21T00:48:33;29.92;;;14.35;;
22435;SDS011;11385;50.822;4.324;2023-11-21T00:51:00;35.88;;;15.53;;
22435;SDS011;11385;50.822;4.324;2023-11-21T00:53:26;29.80;;;13.55;;
22435;SDS011;11385;50.822;4.324;2023-11-21T00:55:53;32.55;;;15.40;;
22435;SDS011;11385;50.822;4.324;2023-11-21T00:58:22;31.85;;;14.93;;
22435;SDS011;11385;50.822;4.324;2023-11-21T01:00:50;30.00;;;14.33;;
22435;SDS011;11385;50.822;4.324;2023-11-21T01:03:16;30.23;;;16.02;;
22435;SDS011;11385;50.822;4.324;2023-11-21T01:05:43;33.48;;;15.25;;
22435;SDS011;11385;50.822;4.324;2023-11-21T01:08:10;30.88;;;15.38;;
22435;SDS011;11385;50.822;4.324;2023-11-21T01:10:37;31.48;;;15.05;;
22435;SDS011;11385;50.822;4.324;2023-11-21T01:13:04;29.90;;;15.75;;
22435;SDS011;11385;50.822;4.324;2023-11-21T01:15:31;35.98;;;15.90;;
22435;SDS011;11385;50.822;4.324;2023-11-21T01:17:58;36.75;;;15.63;;
22435;SDS011;11385;50.822;4.324;2023-11-21T01:20:24;32.17;;;14.78;;
22435;SDS011;11385;50.822;4.324;2023-11-21T01:22:51;31.55;;;15.23;;
22435;SDS011;11385;50.822;4.324;2023-11-21T01:25:19;34.20;;;15.72;;
22435;SDS011;11385;50.822;4.324;2023-11-21T01:27:46;33.73;;;16.80;;
22435;SDS011;11385;50.822;4.324;2023-11-21T01:30:13;33.38;;;16.10;;
22435;SDS011;11385;50.822;4.324;2023-11-21T01:32:40;31.48;;;15.23;;
22435;SDS011;11385;50.822;4.324;2023-11-21T01:35:06;27.75;;;14.90;;
22435;SDS011;11385;50.822;4.324;2023-11-21T01:37:35;30.30;;;15.10;;
22435;SDS011;11385;50.822;4.324;2023-11-21T01:40:04;33.83;;;15.85;;
22435;SDS011;11385;50.822;4.324;2023-11-21T01:42:33;29.05;;;14.58;;
22435;SDS011;11385;50.822;4.324;2023-11-21T01:45:00;32.80;;;15.65;;
22435;SDS011;11385;50.822;4.324;2023-11-21T01:47:32;30.72;;;15.63;;
22435;SDS011;11385;50.822;4.324;2023-11-21T01:50:01;29.37;;;14.93;;
22435;SDS011;11385;50.822;4.324;2023-11-21T01:52:30;31.73;;;15.95;;
22435;SDS011;11385;50.822;4.324;2023-11-21T01:54:57;28.10;;;15.05;;
22435;SDS011;11385;50.822;4.324;2023-11-21T01:57:26;29.40;;;14.28;;
22435;SDS011;11385;50.822;4.324;2023-11-21T01:59:53;29.05;;;15.93;;
22435;SDS011;11385;50.822;4.324;2023-11-21T02:02:21;29.27;;;14.78;;
22435;SDS011;11385;50.822;4.324;2023-11-21T02:04:47;33.80;;;16.70;;
22435;SDS011;11385;50.822;4.324;2023-11-21T02:07:14;30.77;;;15.60;;
22435;SDS011;11385;50.822;4.324;2023-11-21T02:09:41;29.23;;;14.58;;
22435;SDS011;11385;50.822;4.324;2023-11-21T02:12:08;32.15;;;15.25;;
22435;SDS011;11385;50.822;4.324;2023-11-21T02:14:36;28.20;;;14.58;;
22435;SDS011;11385;50.822;4.324;2023-11-21T02:17:02;30.62;;;14.73;;
22435;SDS011;11385;50.822;4.324;2023-11-21T02:19:29;25.30;;;14.05;;
22435;SDS011;11385;50.822;4.324;2023-11-21T02:21:57;32.25;;;15.60;;
22435;SDS011;11385;50.822;4.324;2023-11-21T02:24:28;35.93;;;16.20;;
22435;SDS011;11385;50.822;4.324;2023-11-21T02:26:55;29.92;;;15.28;;
22435;SDS011;11385;50.822;4.324;2023-11-21T02:29:22;27.13;;;14.28;;
22435;SDS011;11385;50.822;4.324;2023-11-21T02:31:52;28.65;;;15.93;;
22435;SDS011;11385;50.822;4.324;2023-11-21T02:34:21;30.05;;;16.35;;
22435;SDS011;11385;50.822;4.324;2023-11-21T02:36:48;26.97;;;14.13;;
22435;SDS011;11385;50.822;4.324;2023-11-21T02:39:16;29.77;;;14.05;;
22435;SDS011;11385;50.822;4.324;2023-11-21T02:41:46;33.50;;;15.65;;
22435;SDS011;11385;50.822;4.324;2023-11-21T02:44:12;32.85;;;16.42;;
22435;SDS011;11385;50.822;4.324;2023-11-21T02:46:39;29.98;;;15.20;;
22435;SDS011;11385;50.822;4.324;2023-11-21T02:49:06;34.50;;;15.50;;
22435;SDS011;11385;50.822;4.324;2023-11-21T02:51:32;32.53;;;16.00;;
22435;SDS011;11385;50.822;4.324;2023-11-21T02:54:01;29.92;;;15.30;;
22435;SDS011;11385;50.822;4.324;2023-11-21T02:56:29;29.20;;;15.30;;
22435;SDS011;11385;50.822;4.324;2023-11-21T02:58:56;29.70;;;14.87;;
22435;SDS011;11385;50.822;4.324;2023-11-21T03:01:23;30.08;;;15.28;;
22435;SDS011;11385;50.822;4.324;2023-11-21T03:03:49;29.75;;;15.78;;
22435;SDS011;11385;50.822;4.324;2023-11-21T03:06:18;34.78;;;15.45;;
22435;SDS011;11385;50.822;4.324;2023-11-21T03:08:45;29.72;;;15.85;;
22435;SDS011;11385;50.822;4.324;2023-11-21T03:11:12;32.03;;;15.98;;
22435;SDS011;11385;50.822;4.324;2023-11-21T03:13:40;37.95;;;16.23;;
22435;SDS011;11385;50.822;4.324;2023-11-21T03:16:08;30.37;;;15.43;;
22435;SDS011;11385;50.822;4.324;2023-11-21T03:18:36;33.33;;;15.95;;
22435;SDS011;11385;50.822;4.324;2023-11-21T03:21:03;29.95;;;15.35;;
22435;SDS011;11385;50.822;4.324;2023-11-21T03:23:31;31.73;;;15.75;;
22435;SDS011;11385;50.822;4.324;2023-11-21T03:25:58;28.80;;;15.78;;
22435;SDS011;11385;50.822;4.324;2023-11-21T03:28:25;34.60;;;16.07;;
22435;SDS011;11385;50.822;4.324;2023-11-21T03:30:53;29.32;;;15.53;;
22435;SDS011;11385;50.822;4.324;2023-11-21T03:33:20;33.10;;;15.53;;
22435;SDS011;11385;50.822;4.324;2023-11-21T03:35:47;31.20;;;16.07;;
22435;SDS011;11385;50.822;4.324;2023-11-21T03:38:15;31.15;;;15.32;;
22435;SDS011;11385;50.822;4.324;2023-11-21T03:40:42;28.65;;;14.95;;
22435;SDS011;11385;50.822;4.324;2023-11-21T03:43:08;29.77;;;16.65;;
22435;SDS011;11385;50.822;4.324;2023-11-21T03:45:35;58.70;;;26.68;;
22435;SDS011;11385;50.822;4.324;2023-11-21T03:48:02;32.88;;;17.05;;
22435;SDS011;11385;50.822;4.324;2023-11-21T03:50:29;28.57;;;15.63;;
22435;SDS011;11385;50.822;4.324;2023-11-21T03:52:55;34.33;;;16.55;;
22435;SDS011;11385;50.822;4.324;2023-11-21T03:55:22;26.27;;;15.43;;
22435;SDS011;11385;50.822;4.324;2023-11-21T03:57:50;30.48;;;17.10;;
22435;SDS011;11385;50.822;4.324;2023-11-21T04:00:17;32.05;;;16.60;;
22435;SDS011;11385;50.822;4.324;2023-11-21T04:02:45;31.90;;;15.80;;
22435;SDS011;11385;50.822;4.324;2023-11-21T04:05:12;31.00;;;16.10;;
22435;SDS011;11385;50.822;4.324;2023-11-21T04:07:38;31.48;;;16.77;;
22435;SDS011;11385;50.822;4.324;2023-11-21T04:10:06;29.98;;;16.25;;
22435;SDS011;11385;50.822;4.324;2023-11-21T04:12:35;37.70;;;17.50;;
22435;SDS011;11385;50.822;4.324;2023-11-21T04:15:02;31.10;;;17.00;;
22435;SDS011;11385;50.822;4.324;2023-11-21T04:17:29;31.35;;;16.62;;
22435;SDS011;11385;50.822;4.324;2023-11-21T04:19:56;29.95;;;16.12;;
22435;SDS011;11385;50.822;4.324;2023-11-21T04:22:23;31.95;;;16.93;;
22435;SDS011;11385;50.822;4.324;2023-11-21T04:24:50;33.08;;;16.90;;
22435;SDS011;11385;50.822;4.324;2023-11-21T04:27:16;30.52;;;16.73;;
22435;SDS011;11385;50.822;4.324;2023-11-21T04:29:44;30.08;;;16.27;;
22435;SDS011;11385;50.822;4.324;2023-11-21T04:32:11;32.95;;;16.70;;
22435;SDS011;11385;50.822;4.324;2023-11-21T04:34:38;30.85;;;16.27;;
22435;SDS011;11385;50.822;4.324;2023-11-21T04:37:04;35.73;;;17.07;;
22435;SDS011;11385;50.822;4.324;2023-11-21T04:39:32;30.77;;;16.23;;
22435;SDS011;11385;50.822;4.324;2023-11-21T04:41:58;33.38;;;15.85;;
22435;SDS011;11385;50.822;4.324;2023-11-21T04:44:25;31.37;;;15.95;;
22435;SDS011;11385;50.822;4.324;2023-11-21T04:46:51;30.62;;;16.40;;
22435;SDS011;11385;50.822;4.324;2023-11-21T04:49:18;32.55;;;16.27;;
22435;SDS011;11385;50.822;4.324;2023-11-21T04:51:45;33.65;;;17.07;;
22435;SDS011;11385;50.822;4.324;2023-11-21T04:54:11;27.70;;;16.40;;
22435;SDS011;11385;50.822;4.324;2023-11-21T04:56:38;29.98;;;16.73;;
22435;SDS011;11385;50.822;4.324;2023-11-21T04:59:05;27.07;;;15.93;;
22435;SDS011;11385;50.822;4.324;2023-11-21T05:01:31;25.23;;;15.20;;
22435;SDS011;11385;50.822;4.324;2023-11-21T05:03:58;27.98;;;16.20;;
22435;SDS011;11385;50.822;4.324;2023-11-21T05:06:24;28.40;;;16.55;;
22435;SDS011;11385;50.822;4.324;2023-11-21T05:08:51;29.20;;;15.45;;
22435;SDS011;11385;50.822;4.324;2023-11-21T05:13:51;29.05;;;15.43;;
22435;SDS011;11385;50.822;4.324;2023-11-21T05:16:19;29.25;;;15.50;;
22435;SDS011;11385;50.822;4.324;2023-11-21T05:18:46;27.82;;;16.75;;
22435;SDS011;11385;50.822;4.324;2023-11-21T05:21:12;25.50;;;14.93;;
22435;SDS011;11385;50.822;4.324;2023-11-21T05:23:39;28.12;;;15.90;;
22435;SDS011;11385;50.822;4.324;2023-11-21T05:26:05;31.37;;;15.70;;
22435;SDS011;11385;50.822;4.324;2023-11-21T05:28:33;29.50;;;15.85;;
22435;SDS011;11385;50.822;4.324;2023-11-21T05:30:59;28.85;;;16.40;;
22435;SDS011;11385;50.822;4.324;2023-11-21T05:33:27;28.00;;;15.00;;
22435;SDS011;11385;50.822;4.324;2023-11-21T05:35:53;28.90;;;16.12;;
22435;SDS011;11385;50.822;4.324;2023-11-21T05:38:20;31.12;;;16.80;;
22435;SDS011;11385;50.822;4.324;2023-11-21T05:40:47;34.08;;;17.05;;
22435;SDS011;11385;50.822;4.324;2023-11-21T05:43:14;29.50;;;16.37;;
22435;SDS011;11385;50.822;4.324;2023-11-21T05:45:40;32.83;;;16.10;;
22435;SDS011;11385;50.822;4.324;2023-11-21T05:48:07;30.88;;;16.12;;
22435;SDS011;11385;50.822;4.324;2023-11-21T05:50:34;27.40;;;16.15;;
22435;SDS011;11385;50.822;4.324;2023-11-21T05:53:01;29.20;;;15.55;;
22435;SDS011;11385;50.822;4.324;2023-11-21T05:55:28;31.52;;;16.15;;
22435;SDS011;11385;50.822;4.324;2023-11-21T05:57:55;28.05;;;16.12;;
22435;SDS011;11385;50.822;4.324;2023-11-21T06:00:21;34.78;;;16.85;;
22435;SDS011;11385;50.822;4.324;2023-11-21T06:02:48;34.30;;;16.62;;
22435;SDS011;11385;50.822;4.324;2023-11-21T06:05:18;31.30;;;15.75;;
22435;SDS011;11385;50.822;4.324;2023-11-21T06:07:48;27.60;;;16.12;;
22435;SDS011;11385;50.822;4.324;2023-11-21T06:10:15;31.52;;;16.80;;
22435;SDS011;11385;50.822;4.324;2023-11-21T06:12:43;31.20;;;16.57;;
22435;SDS011;11385;50.822;4.324;2023-11-21T06:15:10;29.27;;;16.42;;
22435;SDS011;11385;50.822;4.324;2023-11-21T06:17:39;28.47;;;16.45;;
22435;SDS011;11385;50.822;4.324;2023-11-21T06:20:08;28.60;;;16.12;;
22435;SDS011;11385;50.822;4.324;2023-11-21T06:22:37;25.92;;;14.87;;
22435;SDS011;11385;50.822;4.324;2023-11-21T06:25:06;31.07;;;16.62;;
22435;SDS011;11385;50.822;4.324;2023-11-21T06:27:36;43.75;;;23.98;;
22435;SDS011;11385;50.822;4.324;2023-11-21T06:30:04;42.00;;;21.95;;
22435;SDS011;11385;50.822;4.324;2023-11-21T06:32:32;33.88;;;18.05;;
22435;SDS011;11385;50.822;4.324;2023-11-21T06:35:00;32.00;;;17.80;;
22435;SDS011;11385;50.822;4.324;2023-11-21T06:37:27;26.23;;;16.32;;
22435;SDS011;11385;50.822;4.324;2023-11-21T06:39:54;31.52;;;16.45;;
22435;SDS011;11385;50.822;4.324;2023-11-21T06:42:22;29.87;;;15.80;;
22435;SDS011;11385;50.822;4.324;2023-11-21T06:44:49;31.65;;;17.48;;
22435;SDS011;11385;50.822;4.324;2023-11-21T06:47:17;52.30;;;27.98;;
22435;SDS011;11385;50.822;4.324;2023-11-21T06:49:46;33.45;;;19.20;;
22435;SDS011;11385;50.822;4.324;2023-11-21T06:52:13;30.27;;;17.77;;
22435;SDS011;11385;50.822;4.324;2023-11-21T06:54:40;31.77;;;17.20;;
22435;SDS011;11385;50.822;4.324;2023-11-21T06:57:07;23.62;;;15.60;;
22435;SDS011;11385;50.822;4.324;2023-11-21T06:59:34;28.20;;;15.88;;
22435;SDS011;11385;50.822;4.324;2023-11-21T07:02:00;37.35;;;17.35;;
22435;SDS011;11385;50.822;4.324;2023-11-21T07:04:27;29.70;;;16.75;;
22435;SDS011;11385;50.822;4.324;2023-11-21T07:06:54;36.73;;;17.07;;
22435;SDS011;11385;50.822;4.324;2023-11-21T07:09:20;32.10;;;17.52;;
22435;SDS011;11385;50.822;4.324;2023-11-21T07:11:48;30.30;;;17.20;;
22435;SDS011;11385;50.822;4.324;2023-11-21T07:14:15;35.03;;;18.35;;
22435;SDS011;11385;50.822;4.324;2023-11-21T07:16:42;29.75;;;16.93;;
22435;SDS011;11385;50.822;4.324;2023-11-21T07:19:09;34.38;;;18.17;;
22435;SDS011;11385;50.822;4.324;2023-11-21T07:21:35;32.35;;;17.07;;
22435;SDS011;11385;50.822;4.324;2023-11-21T07:24:02;32.00;;;18.77;;
22435;SDS011;11385;50.822;4.324;2023-11-21T07:26:30;34.75;;;17.52;;
22435;SDS011;11385;50.822;4.324;2023-11-21T07:28:56;41.50;;;17.55;;
22435;SDS011;11385;50.822;4.324;2023-11-21T07:31:23;34.05;;;19.23;;
22435;SDS011;11385;50.822;4.324;2023-11-21T07:33:50;35.85;;;17.45;;
22435;SDS011;11385;50.822;4.324;2023-11-21T07:36:17;34.00;;;17.87;;
22435;SDS011;11385;50.822;4.324;2023-11-21T07:38:44;32.90;;;17.37;;
22435;SDS011;11385;50.822;4.324;2023-11-21T07:41:11;34.78;;;17.20;;
22435;SDS011;11385;50.822;4.324;2023-11-21T07:43:39;36.42;;;18.25;;
22435;SDS011;11385;50.822;4.324;2023-11-21T07:46:06;38.10;;;18.70;;
22435;SDS011;11385;50.822;4.324;2023-11-21T07:48:33;32.42;;;19.62;;
22435;SDS011;11385;50.822;4.324;2023-11-21T07:51:01;34.43;;;17.40;;
22435;SDS011;11385;50.822;4.324;2023-11-21T07:53:30;31.25;;;17.15;;
22435;SDS011;11385;50.822;4.324;2023-11-21T07:55:58;31.05;;;17.48;;
22435;SDS011;11385;50.822;4.324;2023-11-21T07:58:29;36.05;;;18.65;;
22435;SDS011;11385;50.822;4.324;2023-11-21T08:00:56;34.65;;;17.00;;
22435;SDS011;11385;50.822;4.324;2023-11-21T08:03:23;35.43;;;18.57;;
22435;SDS011;11385;50.822;4.324;2023-11-21T08:05:49;39.85;;;18.45;;
22435;SDS011;11385;50.822;4.324;2023-11-21T08:08:16;36.53;;;17.98;;
22435;SDS011;11385;50.822;4.324;2023-11-21T08:10:44;30.92;;;17.60;;
22435;SDS011;11385;50.822;4.324;2023-11-21T08:13:14;37.20;;;17.52;;
22435;SDS011;11385;50.822;4.324;2023-11-21T08:15:42;36.93;;;17.75;;
22435;SDS011;11385;50.822;4.324;2023-11-21T08:18:11;31.35;;;17.60;;
22435;SDS011;11385;50.822;4.324;2023-11-21T08:20:40;38.65;;;18.57;;
22435;SDS011;11385;50.822;4.324;2023-11-21T08:23:07;40.55;;;20.57;;
22435;SDS011;11385;50.822;4.324;2023-11-21T08:25:33;43.35;;;20.23;;
22435;SDS011;11385;50.822;4.324;2023-11-21T08:28:00;36.58;;;17.80;;
22435;SDS011;11385;50.822;4.324;2023-11-21T08:30:27;36.95;;;18.42;;
22435;SDS011;11385;50.822;4.324;2023-11-21T08:32:55;33.60;;;17.92;;
22435;SDS011;11385;50.822;4.324;2023-11-21T08:35:24;41.05;;;18.77;;
22435;SDS011;11385;50.822;4.324;2023-11-21T08:37:51;45.28;;;25.80;;
22435;SDS011;11385;50.822;4.324;2023-11-21T08:40:19;43.13;;;24.05;;
22435;SDS011;11385;50.822;4.324;2023-11-21T08:42:47;35.08;;;18.15;;
22435;SDS011;11385;50.822;4.324;2023-11-21T08:45:15;42.15;;;19.82;;
22435;SDS011;11385;50.822;4.324;2023-11-21T08:47:43;35.00;;;17.42;;
22435;SDS011;11385;50.822;4.324;2023-11-21T08:50:10;35.20;;;18.23;;
22435;SDS011;11385;50.822;4.324;2023-11-21T08:52:38;39.38;;;18.60;;
22435;SDS011;11385;50.822;4.324;2023-11-21T08:55:06;30.20;;;16.93;;
22435;SDS011;11385;50.822;4.324;2023-11-21T08:57:35;34.18;;;16.97;;
22435;SDS011;11385;50.822;4.324;2023-11-21T09:00:03;30.77;;;17.30;;
22435;SDS011;11385;50.822;4.324;2023-11-21T09:02:33;42.98;;;19.27;;
22435;SDS011;11385;50.822;4.324;2023-11-21T09:05:00;40.08;;;18.73;;
22435;SDS011;11385;50.822;4.324;2023-11-21T09:07:29;36.35;;;18.55;;
22435;SDS011;11385;50.822;4.324;2023-11-21T09:09:56;38.88;;;18.32;;
22435;SDS011;11385;50.822;4.324;2023-11-21T09:12:24;34.35;;;18.12;;
22435;SDS011;11385;50.822;4.324;2023-11-21T09:14:50;35.63;;;18.45;;
22435;SDS011;11385;50.822;4.324;2023-11-21T09:17:17;41.73;;;18.50;;
22435;SDS011;11385;50.822;4.324;2023-11-21T09:19:44;45.30;;;18.75;;
22435;SDS011;11385;50.822;4.324;2023-11-21T09:22:14;41.75;;;18.17;;
22435;SDS011;11385;50.822;4.324;2023-11-21T09:24:41;38.42;;;17.95;;
22435;SDS011;11385;50.822;4.324;2023-11-21T09:27:08;37.10;;;19.00;;
22435;SDS011;11385;50.822;4.324;2023-11-21T09:29:35;37.95;;;18.50;;
22435;SDS011;11385;50.822;4.324;2023-11-21T09:32:06;49.40;;;19.70;;
22435;SDS011;11385;50.822;4.324;2023-11-21T09:34:34;39.88;;;18.00;;
22435;SDS011;11385;50.822;4.324;2023-11-21T09:37:04;38.53;;;18.50;;
22435;SDS011;11385;50.822;4.324;2023-11-21T09:39:32;40.23;;;17.67;;
22435;SDS011;11385;50.822;4.324;2023-11-21T09:42:06;42.53;;;20.40;;
22435;SDS011;11385;50.822;4.324;2023-11-21T09:47:27;41.25;;;18.90;;
22435;SDS011;11385;50.822;4.324;2023-11-21T09:49:54;41.35;;;18.67;;
22435;SDS011;11385;50.822;4.324;2023-11-21T09:52:24;35.80;;;17.42;;
22435;SDS011;11385;50.822;4.324;2023-11-21T09:54:52;38.95;;;18.30;;
22435;SDS011;11385;50.822;4.324;2023-11-21T09:57:20;36.65;;;17.27;;
22435;SDS011;11385;50.822;4.324;2023-11-21T09:59:49;36.85;;;18.27;;
22435;SDS011;11385;50.822;4.324;2023-11-21T10:02:24;38.40;;;19.05;;
22435;SDS011;11385;50.822;4.324;2023-11-21T10:04:54;38.13;;;19.40;;
22435;SDS011;11385;50.822;4.324;2023-11-21T10:10:20;35.00;;;18.17;;
22435;SDS011;11385;50.822;4.324;2023-11-21T10:12:49;32.05;;;16.65;;
22435;SDS011;11385;50.822;4.324;2023-11-21T10:17:47;32.45;;;15.40;;
22435;SDS011;11385;50.822;4.324;2023-11-21T10:20:15;26.07;;;14.07;;
22435;SDS011;11385;50.822;4.324;2023-11-21T10:22:43;29.07;;;13.25;;
22435;SDS011;11385;50.822;4.324;2023-11-21T10:25:10;23.92;;;12.55;;
22435;SDS011;11385;50.822;4.324;2023-11-21T10:27:39;23.05;;;12.43;;
22435;SDS011;11385;50.822;4.324;2023-11-21T10:30:07;20.17;;;12.43;;
22435;SDS011;11385;50.822;4.324;2023-11-21T10:32:36;22.25;;;12.75;;
22435;SDS011;11385;50.822;4.324;2023-11-21T10:35:03;23.98;;;13.35;;
22435;SDS011;11385;50.822;4.324;2023-11-21T10:37:32;26.45;;;13.32;;
22435;SDS011;11385;50.822;4.324;2023-11-21T10:39:59;27.20;;;14.50;;
22435;SDS011;11385;50.822;4.324;2023-11-21T10:42:25;23.38;;;12.93;;
22435;SDS011;11385;50.822;4.324;2023-11-21T10:44:53;24.05;;;12.40;;
22435;SDS011;11385;50.822;4.324;2023-11-21T10:47:20;22.17;;;13.30;;
22435;SDS011;11385;50.822;4.324;2023-11-21T10:49:48;22.62;;;12.60;;
22435;SDS011;11385;50.822;4.324;2023-11-21T10:52:15;22.45;;;13.08;;
22435;SDS011;11385;50.822;4.324;2023-11-21T10:54:44;23.98;;;13.60;;
22435;SDS011;11385;50.822;4.324;2023-11-21T10:57:10;24.60;;;12.85;;
22435;SDS011;11385;50.822;4.324;2023-11-21T10:59:40;25.60;;;12.93;;
22435;SDS011;11385;50.822;4.324;2023-11-21T11:02:25;25.55;;;14.30;;
22435;SDS011;11385;50.822;4.324;2023-11-21T11:04:53;25.60;;;13.53;;
22435;SDS011;11385;50.822;4.324;2023-11-21T11:07:22;27.50;;;14.45;;
22435;SDS011;11385;50.822;4.324;2023-11-21T11:09:52;26.33;;;15.97;;
22435;SDS011;11385;50.822;4.324;2023-11-21T11:12:20;24.80;;;14.73;;
22435;SDS011;11385;50.822;4.324;2023-11-21T11:14:48;27.48;;;15.68;;
22435;SDS011;11385;50.822;4.324;2023-11-21T11:17:15;29.12;;;15.55;;
22435;SDS011;11385;50.822;4.324;2023-11-21T11:19:42;25.95;;;15.65;;
22435;SDS011;11385;50.822;4.324;2023-11-21T11:25:35;27.87;;;15.83;;
22435;SDS011;11385;50.822;4.324;2023-11-21T11:27:52;29.32;;;16.15;;
22435;SDS011;11385;50.822;4.324;2023-11-21T11:30:29;25.37;;;15.78;;
22435;SDS011;11385;50.822;4.324;2023-11-21T11:33:40;28.65;;;17.27;;
22435;SDS011;11385;50.822;4.324;2023-11-21T11:36:13;30.10;;;16.45;;
22435;SDS011;11385;50.822;4.324;2023-11-21T11:38:45;27.10;;;15.58;;
22435;SDS011;11385;50.822;4.324;2023-11-21T11:41:12;28.27;;;16.65;;
22435;SDS011;11385;50.822;4.324;2023-11-21T11:43:38;25.60;;;15.53;;
22435;SDS011;11385;50.822;4.324;2023-11-21T11:46:07;25.23;;;16.07;;
22435;SDS011;11385;50.822;4.324;2023-11-21T11:48:37;25.68;;;15.08;;
22435;SDS011;11385;50.822;4.324;2023-11-21T11:51:06;23.67;;;15.48;;
22435;SDS011;11385;50.822;4.324;2023-11-21T11:53:40;26.07;;;14.65;;
22435;SDS011;11385;50.822;4.324;2023-11-21T11:59:02;18.95;;;11.00;;
22435;SDS011;11385;50.822;4.324;2023-11-21T12:01:33;17.62;;;11.25;;
22435;SDS011;11385;50.822;4.324;2023-11-21T12:06:54;17.80;;;10.53;;
22435;SDS011;11385;50.822;4.324;2023-11-21T12:09:22;14.10;;;8.88;;
22435;SDS011;11385;50.822;4.324;2023-11-21T12:11:49;16.40;;;9.10;;
22435;SDS011;11385;50.822;4.324;2023-11-21T12:14:16;16.77;;;8.48;;
22435;SDS011;11385;50.822;4.324;2023-11-21T12:16:43;13.80;;;8.40;;
22435;SDS011;11385;50.822;4.324;2023-11-21T12:19:11;12.47;;;8.08;;
22435;SDS011;11385;50.822;4.324;2023-11-21T12:21:38;13.78;;;8.73;;
22435;SDS011;11385;50.822;4.324;2023-11-21T12:24:07;14.20;;;8.73;;
22435;SDS011;11385;50.822;4.324;2023-11-21T12:26:35;15.05;;;8.15;;
22435;SDS011;11385;50.822;4.324;2023-11-21T12:29:02;11.28;;;7.83;;
22435;SDS011;11385;50.822;4.324;2023-11-21T12:31:30;10.80;;;7.28;;
22435;SDS011;11385;50.822;4.324;2023-11-21T12:33:57;13.25;;;6.80;;
22435;SDS011;11385;50.822;4.324;2023-11-21T12:36:24;9.48;;;6.60;;
22435;SDS011;11385;50.822;4.324;2023-11-21T12:38:51;11.10;;;7.00;;
22435;SDS011;11385;50.822;4.324;2023-11-21T12:41:18;12.25;;;7.20;;
22435;SDS011;11385;50.822;4.324;2023-11-21T12:43:46;13.55;;;8.58;;
22435;SDS011;11385;50.822;4.324;2023-11-21T12:46:13;16.37;;;7.30;;
22435;SDS011;11385;50.822;4.324;2023-11-21T12:48:41;13.60;;;7.33;;
22435;SDS011;11385;50.822;4.324;2023-11-21T12:51:09;12.45;;;7.30;;
22435;SDS011;11385;50.822;4.324;2023-11-21T12:53:37;13.28;;;6.37;;
22435;SDS011;11385;50.822;4.324;2023-11-21T12:56:07;10.68;;;6.67;;
22435;SDS011;11385;50.822;4.324;2023-11-21T12:58:37;11.83;;;6.37;;
22435;SDS011;11385;50.822;4.324;2023-11-21T13:01:07;9.95;;;6.85;;
22435;SDS011;11385;50.822;4.324;2023-11-21T13:03:38;10.90;;;7.08;;
22435;SDS011;11385;50.822;4.324;2023-11-21T13:06:06;11.43;;;7.83;;
22435;SDS011;11385;50.822;4.324;2023-11-21T13:08:34;13.75;;;7.42;;
22435;SDS011;11385;50.822;4.324;2023-11-21T13:11:01;13.32;;;6.83;;
22435;SDS011;11385;50.822;4.324;2023-11-21T13:13:28;13.88;;;8.28;;
22435;SDS011;11385;50.822;4.324;2023-11-21T13:15:56;12.70;;;7.87;;
22435;SDS011;11385;50.822;4.324;2023-11-21T13:18:29;14.00;;;7.62;;
22435;SDS011;11385;50.822;4.324;2023-11-21T13:20:58;13.32;;;8.18;;
22435;SDS011;11385;50.822;4.324;2023-11-21T13:23:26;13.15;;;8.15;;
22435;SDS011;11385;50.822;4.324;2023-11-21T13:25:54;15.68;;;8.45;;
22435;SDS011;11385;50.822;4.324;2023-11-21T13:28:21;16.30;;;8.28;;
22435;SDS011;11385;50.822;4.324;2023-11-21T13:30:50;15.13;;;8.63;;
22435;SDS011;11385;50.822;4.324;2023-11-21T13:33:18;12.03;;;8.30;;
22435;SDS011;11385;50.822;4.324;2023-11-21T13:35:47;16.65;;;9.00;;
22435;SDS011;11385;50.822;4.324;2023-11-21T13:38:16;15.30;;;8.53;;
22435;SDS011;11385;50.822;4.324;2023-11-21T13:40:47;16.95;;;9.50;;
22435;SDS011;11385;50.822;4.324;2023-11-21T13:43:15;14.70;;;9.65;;
22435;SDS011;11385;50.822;4.324;2023-11-21T13:45:46;16.93;;;10.20;;
22435;SDS011;11385;50.822;4.324;2023-11-21T13:48:16;16.75;;;9.65;;
22435;SDS011;11385;50.822;4.324;2023-11-21T13:50:44;16.07;;;9.73;;
22435;SDS011;11385;50.822;4.324;2023-11-21T13:53:18;11.73;;;7.40;;
22435;SDS011;11385;50.822;4.324;2023-11-21T13:55:46;10.60;;;7.65;;
22435;SDS011;11385;50.822;4.324;2023-11-21T13:58:15;10.40;;;7.62;;
22435;SDS011;11385;50.822;4.324;2023-11-21T14:00:45;12.25;;;8.08;;
22435;SDS011;11385;50.822;4.324;2023-11-21T14:03:14;15.83;;;8.13;;
22435;SDS011;11385;50.822;4.324;2023-11-21T14:05:46;13.98;;;8.58;;
22435;SDS011;11385;50.822;4.324;2023-11-21T14:08:19;11.80;;;8.38;;
22435;SDS011;11385;50.822;4.324;2023-11-21T14:10:47;9.48;;;6.50;;
22435;SDS011;11385;50.822;4.324;2023-11-21T14:13:19;9.80;;;5.58;;
22435;SDS011;11385;50.822;4.324;2023-11-21T14:15:47;8.95;;;5.70;;
22435;SDS011;11385;50.822;4.324;2023-11-21T14:18:16;8.13;;;6.33;;
22435;SDS011;11385;50.822;4.324;2023-11-21T14:20:46;7.90;;;5.97;;
22435;SDS011;11385;50.822;4.324;2023-11-21T14:23:13;9.18;;;6.40;;
22435;SDS011;11385;50.822;4.324;2023-11-21T14:25:40;8.30;;;6.17;;
22435;SDS011;11385;50.822;4.324;2023-11-21T14:28:07;11.97;;;7.03;;
22435;SDS011;11385;50.822;4.324;2023-11-21T14:30:36;12.68;;;6.70;;
22435;SDS011;11385;50.822;4.324;2023-11-21T14:33:04;9.78;;;6.78;;
22435;SDS011;11385;50.822;4.324;2023-11-21T14:35:33;16.90;;;7.90;;
22435;SDS011;11385;50.822;4.324;2023-11-21T14:38:00;14.00;;;7.60;;
22435;SDS011;11385;50.822;4.324;2023-11-21T14:40:29;14.10;;;7.78;;
22435;SDS011;11385;50.822;4.324;2023-11-21T14:42:59;12.45;;;7.37;;
22435;SDS011;11385;50.822;4.324;2023-11-21T14:45:26;9.45;;;6.70;;
22435;SDS011;11385;50.822;4.324;2023-11-21T14:47:54;9.73;;;6.25;;